Previous Day
Next Day
Current Day
SHEF ID: FVSO2 FAIRVIEW
STATION TYPE: Mesonet
PRECIP AIR-TEMP WIND-DIRWIND-SPEED REL-HUMID SOLAR-RAD
in F deg mph % W/m2
Raw-Meson Raw-Meson Raw-Meson Raw-Meson Raw-Meson Raw-Meson
(US/Central)
05/21 00:00 0.00 63.73 147.50 6.32 95.75 0.00
05/21 01:00 0.00 62.60 145.25 5.37 96.50 0.00
05/21 02:00 0.00 63.36 146.25 7.77 97.50 0.00
05/21 03:00 0.00 64.76 153.75 9.12 97.00 0.00
05/21 04:00 0.00 64.67 147.50 9.62 95.50 0.00
05/21 05:00 0.00 64.94 154.50 8.78 95.00 0.00
05/21 06:00 0.00 65.34 150.25 9.23 93.00 0.00
05/21 07:00 0.00 65.62 149.75 7.77 93.00 6.25
05/21 08:00 0.00 66.43 142.50 8.33 92.25 48.00
05/21 09:00 0.00 68.09 153.75 11.80 86.00 120.50
05/21 10:00 0.00 70.61 166.75 11.19 78.75 283.25
05/21 11:00 0.00 72.59 162.50 11.91 74.25 264.00
05/21 12:00 0.00 73.89 162.00 11.52 72.50 343.50
05/21 13:00 0.00 76.69 153.50 11.41 68.00 727.00
05/21 14:00 0.00 79.16 145.50 15.21 62.75 884.25
05/21 15:00 0.00 80.91 149.75 12.92 57.75 792.25
05/21 16:00 0.00 81.81 140.25 13.92 56.25 691.25
05/21 17:00 0.00 81.77 138.75 14.21 55.75 664.25
05/21 18:00 0.00 81.77 143.00 14.54 54.50 534.50
05/21 19:00 0.00 80.78 138.75 13.92 57.00 345.75
05/21 20:00 0.00 78.44 136.00 12.08 63.00 146.50
05/21 21:00 0.00 74.12 126.00 12.19 79.75 8.50
05/21 22:00 0.00 70.61 134.75 13.98 89.50 0.00
05/21 23:00 ---- 69.98 136.75 12.97 92.50 0.00